Details for BMI Regional at EGNX




Go Back


Latest METAR
Local Time

EGNX 170850Z 26011KT 9999 FEW017 16/11 Q1019
17/08/2018, 10:02:19

Description
Results
BMI Regional Logo
Number of Pilots based at EGNX
1 Pilots Based here
Number of BMI Regional Flights Departed from EGNX
0 Flights Departed
Number of BMI Regional Flights Arrived at EGNX
0 Flights Arrived
Number of BMI Regional Schedules Departing from EGNX
2 Schedules
Number of BMI Regional Schedules Arriving at EGNX
2 Schedules
Number of BMI Regional Schedules Departing from EGNX availible today
1 Schedules Today
Number of BMI Regional Schedules Arriving at EGNX availible today
1 Schedules Today
Average Landing Rate at EGNX
-204 fpm
BMI Regional Average Landing Rate at EGNX
0 fpm
Total Fuel Purchased at EGNX by BMI Regional
0.00 kgs / 0.00 lbs

Pilots Based at EGNX


Pilot ID
Pilot Name
Pilot Rank
No. of Flights
No. of Flying Hours
Stephen Whyles
135
268.49
Content